Aviation Digital Data Service (ADDS)

Output produced by METARs form (2236 UTC 30 March 2017)
found at http://www.aviationweather.gov/adds/metars/
 
KSAC 301724Z 3018/3118 32016G26KT P6SM SKC 
     FM310300 32010KT P6SM SKC
       
KSAF 301724Z 3018/3118 26011KT P6SM BKN200 
     FM302000 25015G25KT P6SM FEW090 BKN180 
     FM310200 15008KT P6SM FEW090 SCT180 
     FM311500 17017G27KT P6SM FEW070 SCT180
       
KSAN 302037Z 3021/3124 22012G18KT P6SM SCT006 BKN012 
     FM310000 26012G22KT P6SM BKN015 
     FM310300 28009KT P6SM BKN025 
     FM310900 31009KT P6SM SCT025
       
KSAT 301720Z 3018/3124 21005KT P6SM FEW250 
     FM311600 18012KT P6SM SCT250
       
KSAV 301730Z 3018/3118 18010KT P6SM SCT020 BKN080 
     FM310900 20009KT P6SM VCSH SCT008 BKN030 
     FM311400 23015G22KT P6SM BKN050
       
KSBA 302048Z 3021/3118 27020G35KT P6SM SCT250 
     FM302200 29020G35KT P6SM SCT250 
     FM310100 33015KT P6SM SKC WS010/36040KT 
     FM310900 33008KT P6SM SKC WS010/36040KT 
     FM311400 32006KT P6SM SKC
       
KSBD 301731Z 3018/3118 23006KT P6SM SKC 
     FM302100 24012G18KT P6SM SKC 
     FM310300 VRB06KT P6SM SKC 
     FM310500 35010G20KT P6SM SKC
       
KSBN 302117Z 3021/3118 08011G17KT P6SM -SHRA VCTS SCT007 OVC035CB 
     TEMPO 3023/3102 4SM SHRA SCT007 OVC015 
     FM310200 08007KT 4SM -SHRA BR OVC008 
     FM310500 06006KT 3SM BR VCSH OVC006 
     FM311000 04006KT 1 1/2SM BR OVC003 
     FM311500 32004KT P6SM OVC008
       
KSBP 301740Z 3018/3118 32015KT P6SM FEW020 
     FM301900 32015G25KT P6SM SCT250 
     FM302100 32025G35KT P6SM SKC 
     FM310300 32015KT P6SM SKC 
     FM311000 32010KT 6SM BR SKC 
     FM311600 32008KT P6SM SKC
       
KSBY 301735Z 3018/3118 11007KT P6SM BKN070 
     FM311000 13011KT P6SM SHRA OVC030 
     FM311300 13014G22KT 3SM SHRA OVC015 
     FM311600 14016G25KT 3SM SHRA OVC008
       
KSCK 301724Z 3018/3118 31021G32KT P6SM SKC 
     FM310300 31016KT P6SM SKC
       
KSDF 301728Z 3018/3124 19013G25KT P6SM SCT035 BKN250 
     FM302300 20013G22KT P6SM VCTS OVC035CB 
     TEMPO 3101/3104 4SM -TSRA BKN025CB 
     FM310400 23010KT P6SM -SHRA VCTS BKN035CB 
     FM310600 23008KT 6SM BR FEW015 BKN035 
     FM311100 24008KT 5SM BR VCSH OVC015
       
KSDL 301734Z 3018/3118 14009KT P6SM FEW250 
     FM302000 21012KT P6SM FEW250 
     FM302300 22016G24KT P6SM SCT250 
     TEMPO 3104/3107 27020G30KT 6SM BLDU BKN070 
     FM311000 25010KT P6SM SCT070
       
KSDY 301724Z 3018/3118 17007KT P6SM BKN090 
     FM310000 11006KT P6SM VCSH OVC070 
     FM311100 08006KT P6SM VCSH OVC030 
     FM311200 08006KT P6SM VCSH OVC015
       
KSEA 302101Z 3021/3124 VRB04KT P6SM VCSH SCT025 BKN050 
     FM310000 33010KT P6SM SCT025 BKN050 
     FM310600 02005KT P6SM SCT040 SCT200 
     FM311700 VRB03KT P6SM BKN200
       
KSEZ 301740Z 3018/3118 18012G18KT P6SM SCT250 
     FM302100 19022G32KT P6SM SCT200 
     FM310200 23020G30KT P6SM VCSH SCT040 BKN080 
     FM310500 25014G24KT 5SM -SHRA OVC025
       
KSFB 302134Z 3022/3118 13014G20KT P6SM BKN070 
     FM310000 14007KT P6SM BKN060 
     FM310300 19005KT P6SM SCT040 
     FM311500 19014G20KT P6SM FEW030
       
KSFF 302106Z 3021/3118 26006KT P6SM VCSH BKN030 BKN070 
     TEMPO 3021/3022 -SHRA BKN025 
     FM310100 34004KT P6SM SCT040 SCT090 
     FM310300 00000KT P6SM FEW050 
     FM311200 00000KT P6SM SCT004
       
KSFO 302103Z 3021/3124 30020G28KT P6SM FEW035 
     FM310000 29026G32KT P6SM FEW035 
     FM310500 29020G28KT P6SM FEW015 SCT030 SCT250 
     FM310900 30016G22KT P6SM SKC 
     FM311500 31015KT P6SM FEW150 
     FM312100 31014G20KT P6SM SKC
       
KSGF 302113Z 3021/3118 22012KT 3SM -RADZ SCT007 OVC015 
     FM302300 23011KT 5SM -RADZ OVC008 
     FM310100 26010KT P6SM OVC008 
     FM310300 29009KT P6SM OVC008 
     FM310900 31006KT P6SM OVC003 
     FM311300 32006KT P6SM BKN008 
     FM311700 34005KT P6SM BKN020
       
KSGJ 301720Z 3018/3118 13009KT P6SM BKN060 
     FM302200 15009KT P6SM VCSH BKN060 
     FM310200 18005KT P6SM SCT060 BKN250 
     FM310900 20007KT P6SM VCSH OVC050 
     FM311200 21009KT P6SM VCTS OVC050CB
       
KSGU 302155Z 3022/3118 21035G45KT 6SM HZ SCT080 BKN120 
     FM302230 20033G45KT P6SM -TSRA BKN050CB BKN080 
     FM310000 31018G26KT P6SM -RA SCT050 BKN070 
     FM310300 24015G25KT P6SM SCT070 BKN100
       
KSHR 301734Z 3018/3118 VRB05KT P6SM VCSH SCT040 OVC070 
     FM310300 VRB05KT 4SM -RA BR BKN025 OVC060 
     FM310900 VRB05KT 2SM -RA BR BKN008 OVC020
       
KSHV 301721Z 3018/3118 27012G20KT P6SM SCT050 
     FM310000 VRB03KT P6SM SKC 
     FM311600 16006KT P6SM SKC
       
KSJC 301727Z 3018/3118 31015G23KT P6SM FEW030 
     FM302100 31026G31KT P6SM FEW040 SCT200 
     FM310400 31012KT P6SM FEW015 SCT200 
     FM310600 31009KT P6SM FEW015 SCT200 
     FM311200 30012KT P6SM SKC 
     FM311700 31013G20KT P6SM FEW250
       
KSJT 301720Z 3018/3118 24012G21KT P6SM SKC 
     FM302300 22010KT P6SM SKC 
     FM311500 19014G23KT P6SM SKC
       
TAF KSKA 301905Z 3019/0101 VRB06KT 9999 BKN150 QNH2992INS 
     BECMG 3022/3023 30012KT 9999 OVC030 QNH3000INS 
     BECMG 3101/3102 30009KT 9999 SCT040 QNH3010INS TX09/3023Z TN01/3112Z
       
TAF KSKF 301800Z 3018/3124 31009KT 9999 SKC QNH2976INS 
     BECMG 3023/3024 18006KT 9999 SKC QNH2975INS 
     BECMG 3115/3116 19015G25KT 9999 SKC QNH2969INS 
     BECMG 3123/3124 13010G15KT 9999 SKC QNH2968INS TX28/3021Z TN12/3112Z
       
KSLC 302226Z 3022/3124 04007KT P6SM -SHRA SCT030 BKN050 
     FM310100 35013G20KT 6SM -RA BR SCT015 BKN030 OVC050 
     FM310500 32009KT P6SM VCSH SCT030 BKN050
       
KSLE 301735Z 3018/3118 29005KT P6SM -SHRA SCT035 BKN045 
     FM310000 31004KT P6SM BKN050 
     FM311000 VRB02KT 4SM BR BKN020
       
TAF KSLI 302108Z 3021/0103 23012KT 9999 BKN250 QNH2986INS 
     TEMPO 3100/3108 31020G30KT 510009 
     BECMG 3108/3109 31009KT 9999 SCT250 QNH2985INS 
     BECMG 3119/3120 23012KT 9999 FEW250 QNH2983INS TX23/3021Z TN13/3112Z
       
KSLK 301724Z 3018/3118 02004KT P6SM FEW200 
     FM302200 05005KT P6SM BKN200 
     FM310700 08004KT 4SM -SN BR VCSH OVC100 
     FM311000 09006KT 2SM -SN BR OVC025 
     FM311500 08006KT 4SM -SNRA BR OVC025
       
KSLN 301746Z 3018/3118 33014G22KT 5SM -RA BKN007 OVC010 
     FM302300 34011KT P6SM OVC015 
     FM310000 34010KT P6SM OVC020 
     FM310700 01004KT P6SM OVC035 
     FM311000 03005KT P6SM OVC020 
     FM311100 03005KT P6SM BKN015
       
KSME 301735Z 3018/3118 18012G26KT P6SM BKN180 
     FM310400 18008KT 3SM -SHRA BR VCTS BKN025CB BKN080 
     FM310800 24008KT P6SM VCSH OVC010 
     FM311000 25008KT P6SM BKN020 
     FM311500 26010KT P6SM -SHRA OVC015
       
KSMF 301724Z 3018/3118 32019G28KT P6SM SKC 
     FM310300 33011KT P6SM SKC
       
KSMN 302219Z 3022/3118 36013G20KT P6SM -SHRA FEW050 OVC060 
     TEMPO 3023/3101 6SM -SNRA BKN035 
     FM310200 35012G20KT 3SM -RASN BR OVC020 
     FM310300 03010G18KT P6SM -SHRASN FEW015 OVC030 
     FM310800 35008KT P6SM VCSH OVC030 AMD LTD TO CLD VIS AND WIND
       
KSMO 301726Z 3018/3118 VRB05KT P6SM SCT250 
     FM301900 24010KT P6SM SCT250 
     FM302100 26012G22KT P6SM SCT250 
     FM310000 29015G25KT P6SM SCT250 
     FM310300 34020G32KT P6SM SKC 
     FM310900 36010G20KT P6SM SKC
       
KSMX 302047Z 3021/3118 31015G25KT P6SM SCT250 
     FM302200 32025G35KT P6SM SKC 
     FM310300 32015KT P6SM SKC 
     FM311000 32010KT 6SM BR SKC 
     FM311600 32008KT P6SM SKC
       
KSNA 301731Z 3018/3118 20008KT P6SM SCT006 
     FM301900 22012G20KT P6SM SCT010 SCT015 
     TEMPO 3020/3024 BKN015 
     FM310200 25009KT P6SM SCT020 
     FM310500 33011KT P6SM SKC
       
KSNS 302104Z 3021/3118 26017G27KT P6SM FEW030 
     FM310300 29014G20KT P6SM FEW020 
     FM310700 32006KT P6SM SCT012 
     FM311700 29012G18KT P6SM SKC
       
KSNY 301720Z 3018/3118 15011KT P6SM BKN150 
     FM310100 12012KT P6SM BKN100 
     FM310600 12013KT 2SM BR OVC015 
     FM311300 10015KT 3SM -RA BR OVC015
       
KSPS 301720Z 3018/3118 30013KT P6SM SKC 
     FM310300 09010KT P6SM SKC 
     FM311500 13013KT P6SM SKC
       
KSRQ 301722Z 3018/3118 20014G20KT P6SM FEW050 SCT250 
     FM302300 21009KT P6SM SCT250 
     FM310300 17007KT P6SM BKN250 
     FM311300 17010G16KT P6SM VCSH SCT015 BKN050 
     FM311600 19015G25KT P6SM VCSH SCT035 BKN050
       
TAF AMD KSSC 302055Z 3020/3121 15012KT 8000 -SHRA VCTS SCT018 OVC020CB QNH2990INS 
     TEMPO 3020/3023 15012G20KT 6000 -TSRA OVC025CB 
     BECMG 3023/3024 14012KT 9999 NSW SCT011 OVC014 QNH2981INS 
     BECMG 3109/3110 19010G20KT 9000 -SHRA VCTS SCT003 BKN008CB OVC013 QNH2979INS 
     TEMPO 3110/3114 21015G35KT 3200 TSRA OVC009CB 
     BECMG 3114/3115 23015G25KT 9999 NSW BKN030 OVC040 510102 QNH2975INS 
     TEMPO 3117/3118 25025G35KT 8000 -SHRA 
     TEMPO 3118/3121 26025G33KT TX28/3020Z TN16/3110Z
       
KSSF 301720Z 3018/3118 21005KT P6SM FEW250 
     FM311600 18012KT P6SM SCT250
       
KSTC 301720Z 3018/3118 08012KT P6SM SCT035 BKN050 
     FM310100 04007KT P6SM BKN060 
     FM310600 04005KT P6SM SCT080
       
KSTL 302150Z 3022/3124 26012KT P6SM SCT035 OVC060 
     FM310500 27009KT 5SM -RA OVC015 
     FM311000 30012KT P6SM OVC008 
     FM311700 32010KT P6SM OVC015
       
KSTS 301727Z 3018/3118 32020G26KT P6SM SKC 
     FM310500 34015G22KT P6SM FEW060 SCT250 
     FM311100 35012G18KT P6SM FEW150
       
KSUA 302015Z 3020/3118 13014G21KT P6SM FEW035 
     FM310000 16006KT P6SM SCT040 
     FM311500 19014G20KT P6SM FEW030
       
KSUN 302030Z 3021/3118 VRB05KT P6SM -SHRA SCT020 OVC035 
     TEMPO 3021/3023 6SM -SHRA BR BKN007 OVC010 
     FM310200 34012G22KT P6SM VCSH SCT030 BKN050
       
KSUS 301943Z 3020/3118 25009KT P6SM SCT012 OVC050 
     TEMPO 3020/3021 BKN012 
     FM310500 27007KT 5SM -RA OVC015 
     FM311000 30010KT P6SM OVC008 
     FM311700 32010KT P6SM OVC015
       
TAF AMD KSUU 302100Z 3021/0101 33015G25KT 9999 FEW200 QNH2996INS 
     BECMG 3100/3101 33012KT 9999 FEW200 QNH2997INS 
     BECMG 3115/3116 33015G25KT 9999 FEW200 QNH2987INS 
     TEMPO 3116/3123 36025G35KT 520003 
     BECMG 0100/0101 33012KT 9999 FEW200 QNH2987INS TX19/3021Z TN07/3112Z
       
KSUX 301720Z 3018/3118 02012KT P6SM OVC010 
     FM310100 01008KT P6SM OVC010 
     FM311600 03009KT P6SM BKN035
       
KSWF 302110Z 3021/3124 10007KT P6SM BKN100 
     FM310500 10005KT P6SM BKN030 
     FM310900 10006KT 4SM -RAPL BKN010 
     FM311500 10010G16KT 1SM -RAPL BKN004 
     FM311800 10014G20KT 1SM RA OVC004 AMD NOT SKED
       
KSYR 301720Z 3018/3118 VRB03KT P6SM FEW200 
     FM302000 09007KT P6SM BKN090 
     FM310100 09006KT P6SM -RA OVC060 
     FM310500 10010KT 5SM -RA OVC030 
     FM310700 10011KT 3SM -RA OVC015 
     FM311300 11012G21KT 2SM -RA OVC010
       
TAF AMD KSZL 302145Z 3021/0101 21012KT 9000 -SHRA SCT007 OVC015 620704 QNH2955INS 
     TEMPO 3022/3024 BKN008 
     BECMG 3102/3103 33012KT 9999 NSW OVC010 620803 QNH2970INS 
     BECMG 3115/3116 01006KT 9999 FEW020 SCT250 QNH2985INS TX13/3021Z TN06/3112Z